sensor_id;sensor_type;location;lat;lon;timestamp;pressure;altitude;pressure_sealevel;temperature;humidity
14041;BME280;7095;51.388;6.196;2022-10-26T00:01:27;92741.59;;;-145.32;100.00
14041;BME280;7095;51.388;6.196;2022-10-26T00:03:56;92741.59;;;-145.32;100.00
14041;BME280;7095;51.388;6.196;2022-10-26T00:06:25;93256.44;;;-145.32;100.00
14041;BME280;7095;51.388;6.196;2022-10-26T00:08:56;93513.91;;;-145.32;100.00
14041;BME280;7095;51.388;6.196;2022-10-26T00:11:25;93771.38;;;-145.32;100.00
14041;BME280;7095;51.388;6.196;2022-10-26T00:13:53;94028.84;;;-145.32;100.00
14041;BME280;7095;51.388;6.196;2022-10-26T00:16:23;94286.38;;;-145.32;100.00
14041;BME280;7095;51.388;6.196;2022-10-26T00:18:52;94543.91;;;-145.32;100.00
14041;BME280;7095;51.388;6.196;2022-10-26T00:21:21;94543.91;;;-145.32;100.00
14041;BME280;7095;51.388;6.196;2022-10-26T00:23:49;94286.38;;;-145.32;100.00
14041;BME280;7095;51.388;6.196;2022-10-26T00:26:19;94543.91;;;-145.32;100.00
14041;BME280;7095;51.388;6.196;2022-10-26T00:28:47;95059.00;;;-145.32;100.00
14041;BME280;7095;51.388;6.196;2022-10-26T00:31:15;95316.59;;;-145.32;100.00
14041;BME280;7095;51.388;6.196;2022-10-26T00:33:44;95831.81;;;-145.32;100.00
14041;BME280;7095;51.388;6.196;2022-10-26T00:36:12;95574.19;;;-145.32;100.00
14041;BME280;7095;51.388;6.196;2022-10-26T00:38:47;95831.81;;;-145.32;100.00
14041;BME280;7095;51.388;6.196;2022-10-26T00:41:17;96089.47;;;-145.32;100.00
14041;BME280;7095;51.388;6.196;2022-10-26T00:43:48;96089.47;;;-145.32;100.00
14041;BME280;7095;51.388;6.196;2022-10-26T00:46:19;96604.81;;;-145.32;100.00
14041;BME280;7095;51.388;6.196;2022-10-26T00:48:54;96604.81;;;-145.32;100.00
14041;BME280;7095;51.388;6.196;2022-10-26T00:51:26;96347.13;;;-145.32;100.00
14041;BME280;7095;51.388;6.196;2022-10-26T00:54:00;95831.81;;;-145.32;100.00
14041;BME280;7095;51.388;6.196;2022-10-26T00:56:30;95831.81;;;-145.32;100.00
14041;BME280;7095;51.388;6.196;2022-10-26T00:59:04;95316.59;;;-145.32;100.00
14041;BME280;7095;51.388;6.196;2022-10-26T01:01:35;95059.00;;;-145.32;100.00
14041;BME280;7095;51.388;6.196;2022-10-26T01:04:05;95316.59;;;-145.32;100.00
14041;BME280;7095;51.388;6.196;2022-10-26T01:06:35;95316.59;;;-145.32;100.00
14041;BME280;7095;51.388;6.196;2022-10-26T01:09:05;94801.44;;;-145.32;100.00
14041;BME280;7095;51.388;6.196;2022-10-26T01:11:33;94286.38;;;-145.32;100.00
14041;BME280;7095;51.388;6.196;2022-10-26T01:14:06;94543.91;;;-145.32;100.00
14041;BME280;7095;51.388;6.196;2022-10-26T01:16:48;94543.91;;;-145.32;100.00
14041;BME280;7095;51.388;6.196;2022-10-26T01:19:51;94543.91;;;-145.32;100.00
14041;BME280;7095;51.388;6.196;2022-10-26T01:22:28;94286.38;;;-145.32;100.00
14041;BME280;7095;51.388;6.196;2022-10-26T01:25:03;94543.91;;;-145.32;100.00
14041;BME280;7095;51.388;6.196;2022-10-26T01:27:37;95059.00;;;-145.32;100.00
14041;BME280;7095;51.388;6.196;2022-10-26T01:30:22;94801.44;;;-145.32;100.00
14041;BME280;7095;51.388;6.196;2022-10-26T01:33:26;94543.91;;;-145.32;100.00
14041;BME280;7095;51.388;6.196;2022-10-26T01:36:04;93771.38;;;-145.32;100.00
14041;BME280;7095;51.388;6.196;2022-10-26T01:38:43;93513.91;;;-145.32;100.00
14041;BME280;7095;51.388;6.196;2022-10-26T01:41:19;94028.84;;;-145.32;100.00
14041;BME280;7095;51.388;6.196;2022-10-26T01:43:54;94543.91;;;-145.32;100.00
14041;BME280;7095;51.388;6.196;2022-10-26T01:46:28;95059.00;;;-145.32;100.00
14041;BME280;7095;51.388;6.196;2022-10-26T01:49:01;95059.00;;;-145.32;100.00
14041;BME280;7095;51.388;6.196;2022-10-26T01:51:34;95574.19;;;-145.32;100.00
14041;BME280;7095;51.388;6.196;2022-10-26T01:54:03;95574.19;;;-145.32;100.00
14041;BME280;7095;51.388;6.196;2022-10-26T01:56:35;95574.19;;;-145.32;100.00
14041;BME280;7095;51.388;6.196;2022-10-26T01:59:18;95316.59;;;-145.32;100.00
14041;BME280;7095;51.388;6.196;2022-10-26T02:04:54;95316.59;;;-145.32;100.00
14041;BME280;7095;51.388;6.196;2022-10-26T02:07:33;94801.44;;;-145.32;100.00
14041;BME280;7095;51.388;6.196;2022-10-26T02:10:09;94801.44;;;-145.32;100.00
14041;BME280;7095;51.388;6.196;2022-10-26T02:12:51;95059.00;;;-145.32;100.00
14041;BME280;7095;51.388;6.196;2022-10-26T02:15:28;94801.44;;;-145.32;100.00
14041;BME280;7095;51.388;6.196;2022-10-26T02:18:06;94801.44;;;-145.32;100.00
14041;BME280;7095;51.388;6.196;2022-10-26T02:20:41;95574.19;;;-145.32;100.00
14041;BME280;7095;51.388;6.196;2022-10-26T02:23:12;95831.81;;;-145.32;100.00
14041;BME280;7095;51.388;6.196;2022-10-26T02:25:46;95831.81;;;-145.32;100.00
14041;BME280;7095;51.388;6.196;2022-10-26T02:28:19;96089.47;;;-145.32;100.00
14041;BME280;7095;51.388;6.196;2022-10-26T02:30:51;95831.81;;;-145.32;100.00
14041;BME280;7095;51.388;6.196;2022-10-26T02:33:25;95831.81;;;-145.32;100.00
14041;BME280;7095;51.388;6.196;2022-10-26T02:35:57;95316.59;;;-145.32;100.00
14041;BME280;7095;51.388;6.196;2022-10-26T02:38:29;95574.19;;;-145.32;100.00
14041;BME280;7095;51.388;6.196;2022-10-26T02:41:01;95316.59;;;-145.32;100.00
14041;BME280;7095;51.388;6.196;2022-10-26T02:43:35;94801.44;;;-145.32;100.00
14041;BME280;7095;51.388;6.196;2022-10-26T02:46:07;95574.19;;;-145.32;100.00
14041;BME280;7095;51.388;6.196;2022-10-26T02:48:38;95831.81;;;-145.32;100.00
14041;BME280;7095;51.388;6.196;2022-10-26T02:51:10;96089.47;;;-145.32;100.00
14041;BME280;7095;51.388;6.196;2022-10-26T02:53:44;96089.47;;;-145.32;100.00
14041;BME280;7095;51.388;6.196;2022-10-26T02:56:19;95831.81;;;-145.32;100.00
14041;BME280;7095;51.388;6.196;2022-10-26T02:58:51;95574.19;;;-145.32;100.00
14041;BME280;7095;51.388;6.196;2022-10-26T03:01:22;95059.00;;;-145.32;100.00
14041;BME280;7095;51.388;6.196;2022-10-26T03:03:55;95059.00;;;-145.32;100.00
14041;BME280;7095;51.388;6.196;2022-10-26T03:06:25;95059.00;;;-145.32;100.00
14041;BME280;7095;51.388;6.196;2022-10-26T03:08:54;94286.38;;;-145.32;100.00
14041;BME280;7095;51.388;6.196;2022-10-26T03:11:22;94028.84;;;-145.32;100.00
14041;BME280;7095;51.388;6.196;2022-10-26T03:13:50;93771.38;;;-145.32;100.00
14041;BME280;7095;51.388;6.196;2022-10-26T03:16:19;93513.91;;;-145.32;100.00
14041;BME280;7095;51.388;6.196;2022-10-26T03:18:47;93771.38;;;-145.32;100.00
14041;BME280;7095;51.388;6.196;2022-10-26T03:21:17;93771.38;;;-145.32;100.00
14041;BME280;7095;51.388;6.196;2022-10-26T03:23:45;92999.00;;;-145.32;100.00
14041;BME280;7095;51.388;6.196;2022-10-26T03:26:16;92741.59;;;-145.32;100.00
14041;BME280;7095;51.388;6.196;2022-10-26T03:28:45;92484.19;;;-145.32;100.00
14041;BME280;7095;51.388;6.196;2022-10-26T03:31:13;92484.19;;;-145.32;100.00
14041;BME280;7095;51.388;6.196;2022-10-26T03:33:41;91454.81;;;-145.32;100.00
14041;BME280;7095;51.388;6.196;2022-10-26T03:36:11;91454.81;;;-145.32;100.00
14041;BME280;7095;51.388;6.196;2022-10-26T03:38:40;91712.13;;;-145.32;100.00
14041;BME280;7095;51.388;6.196;2022-10-26T03:41:09;91454.81;;;-145.32;100.00
14041;BME280;7095;51.388;6.196;2022-10-26T03:43:37;90168.50;;;-145.32;100.00
14041;BME280;7095;51.388;6.196;2022-10-26T03:46:06;90940.22;;;-145.32;100.00
14041;BME280;7095;51.388;6.196;2022-10-26T03:48:36;90682.97;;;-145.32;100.00
14041;BME280;7095;51.388;6.196;2022-10-26T03:51:06;90425.72;;;-145.32;100.00
14041;BME280;7095;51.388;6.196;2022-10-26T03:53:34;90168.50;;;-145.32;100.00
14041;BME280;7095;51.388;6.196;2022-10-26T03:56:05;89654.13;;;-145.32;100.00
14041;BME280;7095;51.388;6.196;2022-10-26T03:58:33;89396.97;;;-145.32;100.00
14041;BME280;7095;51.388;6.196;2022-10-26T04:01:02;88882.69;;;-145.32;100.00
14041;BME280;7095;51.388;6.196;2022-10-26T04:03:30;87854.38;;;-145.32;100.00
14041;BME280;7095;51.388;6.196;2022-10-26T04:05:59;87854.38;;;-145.32;100.00
14041;BME280;7095;51.388;6.196;2022-10-26T04:08:28;87083.34;;;-145.32;100.00
14041;BME280;7095;51.388;6.196;2022-10-26T04:10:56;87083.34;;;-145.32;100.00
14041;BME280;7095;51.388;6.196;2022-10-26T04:13:31;86569.41;;;-145.32;100.00
14041;BME280;7095;51.388;6.196;2022-10-26T04:16:00;86312.47;;;-145.32;100.00
14041;BME280;7095;51.388;6.196;2022-10-26T04:18:28;85541.78;;;-145.32;100.00
14041;BME280;7095;51.388;6.196;2022-10-26T04:20:59;85028.06;;;-145.32;100.00
14041;BME280;7095;51.388;6.196;2022-10-26T04:23:29;85541.78;;;-145.32;100.00
14041;BME280;7095;51.388;6.196;2022-10-26T04:25:57;85284.91;;;-145.32;100.00
14041;BME280;7095;51.388;6.196;2022-10-26T04:28:26;85284.91;;;-145.32;100.00
14041;BME280;7095;51.388;6.196;2022-10-26T04:30:56;85798.66;;;-145.32;100.00
14041;BME280;7095;51.388;6.196;2022-10-26T04:33:24;85028.06;;;-145.32;100.00
14041;BME280;7095;51.388;6.196;2022-10-26T04:35:57;84257.66;;;-145.32;100.00
14041;BME280;7095;51.388;6.196;2022-10-26T04:38:26;83744.16;;;-145.32;100.00
14041;BME280;7095;51.388;6.196;2022-10-26T04:40:58;82460.72;;;-145.32;100.00
14041;BME280;7095;51.388;6.196;2022-10-26T04:43:26;81947.50;;;-145.32;100.00
14041;BME280;7095;51.388;6.196;2022-10-26T04:45:56;81434.31;;;-145.32;100.00
14041;BME280;7095;51.388;6.196;2022-10-26T04:48:25;81177.78;;;-145.32;100.00
14041;BME280;7095;51.388;6.196;2022-10-26T04:50:57;80921.25;;;-145.32;100.00
14041;BME280;7095;51.388;6.196;2022-10-26T04:53:25;81177.78;;;-145.32;100.00
14041;BME280;7095;51.388;6.196;2022-10-26T04:55:57;81434.31;;;-145.32;100.00
14041;BME280;7095;51.388;6.196;2022-10-26T04:58:27;81947.50;;;-145.32;100.00
14041;BME280;7095;51.388;6.196;2022-10-26T05:00:57;81947.50;;;-145.32;100.00
14041;BME280;7095;51.388;6.196;2022-10-26T05:03:25;82204.09;;;-145.32;100.00
14041;BME280;7095;51.388;6.196;2022-10-26T05:05:57;82974.03;;;-145.32;100.00
14041;BME280;7095;51.388;6.196;2022-10-26T05:08:26;83230.72;;;-145.32;100.00
14041;BME280;7095;51.388;6.196;2022-10-26T05:10:55;83487.44;;;-145.32;100.00
14041;BME280;7095;51.388;6.196;2022-10-26T05:13:23;83487.44;;;-145.32;100.00
14041;BME280;7095;51.388;6.196;2022-10-26T05:15:53;84257.66;;;-145.32;100.00
14041;BME280;7095;51.388;6.196;2022-10-26T05:18:23;84257.66;;;-145.32;100.00
14041;BME280;7095;51.388;6.196;2022-10-26T05:20:52;84257.66;;;-145.32;100.00
14041;BME280;7095;51.388;6.196;2022-10-26T05:23:21;83744.16;;;-145.32;100.00
14041;BME280;7095;51.388;6.196;2022-10-26T05:25:50;83487.44;;;-145.32;100.00
14041;BME280;7095;51.388;6.196;2022-10-26T05:28:18;83744.16;;;-145.32;100.00
14041;BME280;7095;51.388;6.196;2022-10-26T05:30:46;83230.72;;;-145.32;100.00
14041;BME280;7095;51.388;6.196;2022-10-26T05:33:15;82717.38;;;-145.32;100.00
14041;BME280;7095;51.388;6.196;2022-10-26T05:35:45;81947.50;;;-145.32;100.00
14041;BME280;7095;51.388;6.196;2022-10-26T05:38:14;81947.50;;;-145.32;100.00
14041;BME280;7095;51.388;6.196;2022-10-26T05:40:46;81434.31;;;-145.32;100.00
14041;BME280;7095;51.388;6.196;2022-10-26T05:43:16;80408.22;;;-145.32;100.00
14041;BME280;7095;51.388;6.196;2022-10-26T05:45:49;79895.28;;;-145.32;100.00
14041;BME280;7095;51.388;6.196;2022-10-26T05:48:17;79382.44;;;-145.32;100.00
14041;BME280;7095;51.388;6.196;2022-10-26T05:50:47;78356.94;;;-145.32;100.00
14041;BME280;7095;51.388;6.196;2022-10-26T05:53:16;78613.28;;;-145.32;100.00
14041;BME280;7095;51.388;6.196;2022-10-26T05:55:45;77075.53;;;-145.32;100.00
14041;BME280;7095;51.388;6.196;2022-10-26T05:58:14;78100.63;;;-145.32;100.00
14041;BME280;7095;51.388;6.196;2022-10-26T06:00:51;77331.78;;;-145.32;100.00
14041;BME280;7095;51.388;6.196;2022-10-26T06:03:32;76819.28;;;-145.32;100.00
14041;BME280;7095;51.388;6.196;2022-10-26T06:06:06;76563.09;;;-145.32;100.00
14041;BME280;7095;51.388;6.196;2022-10-26T06:08:35;76563.09;;;-145.32;100.00
14041;BME280;7095;51.388;6.196;2022-10-26T06:11:04;76563.09;;;-145.32;100.00
14041;BME280;7095;51.388;6.196;2022-10-26T06:13:34;76819.28;;;-145.32;100.00
14041;BME280;7095;51.388;6.196;2022-10-26T06:16:17;77075.53;;;-145.32;100.00
14041;BME280;7095;51.388;6.196;2022-10-26T06:18:57;76819.28;;;-145.32;100.00
14041;BME280;7095;51.388;6.196;2022-10-26T06:21:46;76563.09;;;-145.32;100.00
14041;BME280;7095;51.388;6.196;2022-10-26T06:24:23;76306.91;;;-145.32;100.00
14041;BME280;7095;51.388;6.196;2022-10-26T06:26:57;76563.09;;;-145.32;100.00
14041;BME280;7095;51.388;6.196;2022-10-26T06:29:37;77075.53;;;-145.32;100.00
14041;BME280;7095;51.388;6.196;2022-10-26T06:32:10;76563.09;;;-145.32;100.00
14041;BME280;7095;51.388;6.196;2022-10-26T06:34:43;76819.28;;;-145.32;100.00
14041;BME280;7095;51.388;6.196;2022-10-26T06:37:14;76563.09;;;-145.32;100.00
14041;BME280;7095;51.388;6.196;2022-10-26T06:39:45;76563.09;;;-145.32;100.00
14041;BME280;7095;51.388;6.196;2022-10-26T06:42:20;76563.09;;;-145.32;100.00
14041;BME280;7095;51.388;6.196;2022-10-26T06:44:49;76563.09;;;-145.32;100.00
14041;BME280;7095;51.388;6.196;2022-10-26T06:47:20;76306.91;;;-145.32;100.00
14041;BME280;7095;51.388;6.196;2022-10-26T06:49:57;76050.72;;;-145.32;100.00
14041;BME280;7095;51.388;6.196;2022-10-26T06:52:33;75538.44;;;-145.32;100.00
14041;BME280;7095;51.388;6.196;2022-10-26T06:55:03;75538.44;;;-145.32;100.00
14041;BME280;7095;51.388;6.196;2022-10-26T06:57:34;75538.44;;;-145.32;100.00
14041;BME280;7095;51.388;6.196;2022-10-26T07:00:06;75538.44;;;-145.32;100.00
14041;BME280;7095;51.388;6.196;2022-10-26T07:02:35;75026.22;;;-145.32;100.00
14041;BME280;7095;51.388;6.196;2022-10-26T07:05:06;75538.44;;;-145.32;100.00
14041;BME280;7095;51.388;6.196;2022-10-26T07:07:42;75538.44;;;-145.32;100.00
14041;BME280;7095;51.388;6.196;2022-10-26T07:10:12;75538.44;;;-145.32;100.00
14041;BME280;7095;51.388;6.196;2022-10-26T07:12:41;76050.72;;;-145.32;100.00
14041;BME280;7095;51.388;6.196;2022-10-26T07:15:09;75026.22;;;-145.32;100.00
14041;BME280;7095;51.388;6.196;2022-10-26T07:17:42;74514.09;;;-145.32;100.00
14041;BME280;7095;51.388;6.196;2022-10-26T07:20:12;74002.03;;;-145.32;100.00
14041;BME280;7095;51.388;6.196;2022-10-26T07:22:42;72978.16;;;-145.32;100.00
14041;BME280;7095;51.388;6.196;2022-10-26T07:25:12;72466.34;;;-145.32;100.00
14041;BME280;7095;51.388;6.196;2022-10-26T07:27:41;71656.78;;;-145.32;100.00
14041;BME280;7095;51.388;6.196;2022-10-26T07:30:10;69494.88;;;-145.32;100.00
14041;BME280;7095;51.388;6.196;2022-10-26T07:32:38;69141.34;;;-145.32;100.00
14041;BME280;7095;51.388;6.196;2022-10-26T07:35:07;67843.41;;;-145.32;100.00
14041;BME280;7095;51.388;6.196;2022-10-26T07:37:36;67270.47;;;-145.32;100.00
14041;BME280;7095;51.388;6.196;2022-10-26T07:40:07;67216.56;;;-145.32;100.00
14041;BME280;7095;51.388;6.196;2022-10-26T07:42:35;66206.69;;;-145.32;100.00
14041;BME280;7095;51.388;6.196;2022-10-26T07:45:04;66785.44;;;-145.32;100.00
14041;BME280;7095;51.388;6.196;2022-10-26T07:47:33;66531.97;;;-145.32;100.00
14041;BME280;7095;51.388;6.196;2022-10-26T07:50:02;65600.09;;;-145.32;100.00
14041;BME280;7095;51.388;6.196;2022-10-26T07:52:31;63910.63;;;-145.32;100.00
14041;BME280;7095;51.388;6.196;2022-10-26T07:55:01;63288.50;;;-145.32;100.00
14041;BME280;7095;51.388;6.196;2022-10-26T07:57:32;62720.31;;;-145.32;100.00
14041;BME280;7095;51.388;6.196;2022-10-26T08:00:01;62122.34;;;-145.32;100.00
14041;BME280;7095;51.388;6.196;2022-10-26T08:02:30;61544.38;;;-145.32;100.00
14041;BME280;7095;51.388;6.196;2022-10-26T08:04:59;61444.75;;;-145.32;100.00
14041;BME280;7095;51.388;6.196;2022-10-26T08:07:27;61018.31;;;-145.32;100.00
14041;BME280;7095;51.388;6.196;2022-10-26T08:09:56;60452.50;;;-145.32;100.00
14041;BME280;7095;51.388;6.196;2022-10-26T08:12:24;60396.72;;;-145.32;100.00
14041;BME280;7095;51.388;6.196;2022-10-26T08:14:54;60773.25;;;-145.32;100.00
14041;BME280;7095;51.388;6.196;2022-10-26T08:17:25;61233.53;;;-145.32;100.00
14041;BME280;7095;51.388;6.196;2022-10-26T08:19:56;60799.16;;;-145.32;100.00
14041;BME280;7095;51.388;6.196;2022-10-26T08:22:25;60928.66;;;-145.32;100.00
14041;BME280;7095;51.388;6.196;2022-10-26T08:24:53;60550.13;;;-145.32;100.00
14041;BME280;7095;51.388;6.196;2022-10-26T08:27:21;60546.16;;;-145.32;100.00
14041;BME280;7095;51.388;6.196;2022-10-26T08:29:50;60177.59;;;-145.32;100.00
14041;BME280;7095;51.388;6.196;2022-10-26T08:32:20;60042.16;;;-145.32;100.00
14041;BME280;7095;51.388;6.196;2022-10-26T08:34:49;59502.41;;;-145.32;100.00
14041;BME280;7095;51.388;6.196;2022-10-26T08:37:18;59110.06;;;-145.32;100.00
14041;BME280;7095;51.388;6.196;2022-10-26T08:39:46;58775.53;;;-145.32;100.00
14041;BME280;7095;51.388;6.196;2022-10-26T08:42:26;58799.44;;;-145.32;100.00
14041;BME280;7095;51.388;6.196;2022-10-26T08:44:59;58588.38;;;-145.32;100.00
14041;BME280;7095;51.388;6.196;2022-10-26T08:47:34;57927.41;;;-145.32;100.00
14041;BME280;7095;51.388;6.196;2022-10-26T08:50:09;57756.22;;;-145.32;100.00
14041;BME280;7095;51.388;6.196;2022-10-26T08:52:45;57465.63;;;-145.32;100.00
14041;BME280;7095;51.388;6.196;2022-10-26T08:55:17;57421.81;;;-145.32;100.00
14041;BME280;7095;51.388;6.196;2022-10-26T08:57:47;57202.91;;;-145.32;100.00
14041;BME280;7095;51.388;6.196;2022-10-26T09:00:19;57073.53;;;-145.32;100.00
14041;BME280;7095;51.388;6.196;2022-10-26T09:02:50;57093.44;;;-145.32;100.00
14041;BME280;7095;51.388;6.196;2022-10-26T09:05:22;56697.41;;;-145.32;100.00
14041;BME280;7095;51.388;6.196;2022-10-26T09:08:05;56283.53;;;-145.32;100.00
14041;BME280;7095;51.388;6.196;2022-10-26T09:10:40;55961.22;;;-145.32;100.00
14041;BME280;7095;51.388;6.196;2022-10-26T09:13:20;55762.28;;;-145.32;100.00
14041;BME280;7095;51.388;6.196;2022-10-26T09:15:58;55531.50;;;-145.32;100.00
14041;BME280;7095;51.388;6.196;2022-10-26T09:18:41;55356.47;;;-145.32;100.00
14041;BME280;7095;51.388;6.196;2022-10-26T09:21:27;55197.34;;;-145.32;100.00
14041;BME280;7095;51.388;6.196;2022-10-26T09:24:03;55181.41;;;-145.32;100.00
14041;BME280;7095;51.388;6.196;2022-10-26T09:26:36;55002.41;;;-145.32;100.00
14041;BME280;7095;51.388;6.196;2022-10-26T09:29:11;54879.09;;;-145.32;100.00
14041;BME280;7095;51.388;6.196;2022-10-26T09:31:42;54855.22;;;-145.32;100.00
14041;BME280;7095;51.388;6.196;2022-10-26T09:34:19;54755.78;;;-145.32;100.00
14041;BME280;7095;51.388;6.196;2022-10-26T09:36:52;54706.06;;;-145.32;100.00
14041;BME280;7095;51.388;6.196;2022-10-26T09:39:27;54556.91;;;-145.32;100.00
14041;BME280;7095;51.388;6.196;2022-10-26T09:42:00;54600.66;;;-145.32;100.00
14041;BME280;7095;51.388;6.196;2022-10-26T09:44:33;54521.13;;;-145.32;100.00
14041;BME280;7095;51.388;6.196;2022-10-26T09:47:08;54407.78;;;-145.32;100.00
14041;BME280;7095;51.388;6.196;2022-10-26T09:49:44;54451.53;;;-145.32;100.00
14041;BME280;7095;51.388;6.196;2022-10-26T09:52:15;54411.75;;;-145.32;100.00
14041;BME280;7095;51.388;6.196;2022-10-26T09:54:44;54366.00;;;-145.32;100.00
14041;BME280;7095;51.388;6.196;2022-10-26T09:57:14;54290.44;;;-145.32;100.00
14041;BME280;7095;51.388;6.196;2022-10-26T09:59:44;54270.56;;;-145.32;100.00
14041;BME280;7095;51.388;6.196;2022-10-26T10:02:32;54218.84;;;-145.32;100.00
14041;BME280;7095;51.388;6.196;2022-10-26T10:05:20;54206.94;;;-145.32;100.00
14041;BME280;7095;51.388;6.196;2022-10-26T10:08:13;54208.91;;;-145.32;100.00
14041;BME280;7095;51.388;6.196;2022-10-26T10:10:57;54133.34;;;-145.32;100.00
14041;BME280;7095;51.388;6.196;2022-10-26T10:13:27;54171.13;;;-145.32;100.00
14041;BME280;7095;51.388;6.196;2022-10-26T10:16:02;54109.50;;;-145.32;100.00
14041;BME280;7095;51.388;6.196;2022-10-26T10:18:32;54159.19;;;-145.32;100.00
14041;BME280;7095;51.388;6.196;2022-10-26T10:21:02;54155.22;;;-145.32;100.00
14041;BME280;7095;51.388;6.196;2022-10-26T10:23:33;54161.19;;;-145.32;100.00
14041;BME280;7095;51.388;6.196;2022-10-26T10:26:07;54133.34;;;-145.32;100.00
14041;BME280;7095;51.388;6.196;2022-10-26T10:28:37;54143.28;;;-145.32;100.00
14041;BME280;7095;51.388;6.196;2022-10-26T10:31:19;54133.34;;;-145.32;100.00
14041;BME280;7095;51.388;6.196;2022-10-26T10:33:48;54105.50;;;-145.32;100.00
14041;BME280;7095;51.388;6.196;2022-10-26T10:36:19;54111.47;;;-145.32;100.00
14041;BME280;7095;51.388;6.196;2022-10-26T10:38:49;54081.66;;;-145.32;100.00
14041;BME280;7095;51.388;6.196;2022-10-26T10:41:22;54061.78;;;-145.32;100.00
14041;BME280;7095;51.388;6.196;2022-10-26T10:43:54;54059.78;;;-145.32;100.00
14041;BME280;7095;51.388;6.196;2022-10-26T10:46:25;54027.97;;;-145.32;100.00
14041;BME280;7095;51.388;6.196;2022-10-26T10:49:00;54018.03;;;-145.32;100.00
14041;BME280;7095;51.388;6.196;2022-10-26T10:51:37;54055.81;;;-145.32;100.00
14041;BME280;7095;51.388;6.196;2022-10-26T10:54:19;53962.34;;;-145.32;100.00
14041;BME280;7095;51.388;6.196;2022-10-26T10:56:51;53998.16;;;-145.32;100.00
14041;BME280;7095;51.388;6.196;2022-10-26T10:59:35;53942.47;;;-145.32;100.00
14041;BME280;7095;51.388;6.196;2022-10-26T11:02:21;53944.47;;;-145.32;100.00
14041;BME280;7095;51.388;6.196;2022-10-26T11:05:04;53930.53;;;-145.32;100.00
14041;BME280;7095;51.388;6.196;2022-10-26T11:07:43;53936.50;;;-145.32;100.00
14041;BME280;7095;51.388;6.196;2022-10-26T11:10:16;53930.53;;;-145.32;100.00
14041;BME280;7095;51.388;6.196;2022-10-26T11:12:49;53906.69;;;-145.32;100.00
14041;BME280;7095;51.388;6.196;2022-10-26T11:15:22;53894.75;;;-145.32;100.00
14041;BME280;7095;51.388;6.196;2022-10-26T11:17:57;53888.78;;;-145.32;100.00
14041;BME280;7095;51.388;6.196;2022-10-26T11:20:31;53898.72;;;-145.32;100.00
14041;BME280;7095;51.388;6.196;2022-10-26T11:23:08;53884.81;;;-145.32;100.00
14041;BME280;7095;51.388;6.196;2022-10-26T11:25:43;53860.94;;;-145.32;100.00
14041;BME280;7095;51.388;6.196;2022-10-26T11:28:16;53845.03;;;-145.32;100.00
14041;BME280;7095;51.388;6.196;2022-10-26T11:30:51;53849.03;;;-145.32;100.00
14041;BME280;7095;51.388;6.196;2022-10-26T11:33:29;53882.81;;;-145.32;100.00
14041;BME280;7095;51.388;6.196;2022-10-26T11:36:03;53809.25;;;-145.32;100.00
14041;BME280;7095;51.388;6.196;2022-10-26T11:38:39;53821.19;;;-145.32;100.00
14041;BME280;7095;51.388;6.196;2022-10-26T11:41:25;53821.19;;;-145.32;100.00
14041;BME280;7095;51.388;6.196;2022-10-26T11:44:04;53853.00;;;-145.32;100.00
14041;BME280;7095;51.388;6.196;2022-10-26T11:46:40;53795.34;;;-145.32;100.00
14041;BME280;7095;51.388;6.196;2022-10-26T11:49:14;53811.25;;;-145.32;100.00
14041;BME280;7095;51.388;6.196;2022-10-26T11:51:48;53783.41;;;-145.32;100.00
14041;BME280;7095;51.388;6.196;2022-10-26T11:54:23;53767.50;;;-145.32;100.00
14041;BME280;7095;51.388;6.196;2022-10-26T11:56:56;53817.22;;;-145.32;100.00
14041;BME280;7095;51.388;6.196;2022-10-26T11:59:27;53795.34;;;-145.32;100.00
14041;BME280;7095;51.388;6.196;2022-10-26T12:02:03;53789.38;;;-145.32;100.00
14041;BME280;7095;51.388;6.196;2022-10-26T12:04:35;53775.47;;;-145.32;100.00
14041;BME280;7095;51.388;6.196;2022-10-26T12:07:09;53771.47;;;-145.32;100.00
14041;BME280;7095;51.388;6.196;2022-10-26T12:09:43;53745.63;;;-145.32;100.00
14041;BME280;7095;51.388;6.196;2022-10-26T12:12:18;53741.66;;;-145.32;100.00
14041;BME280;7095;51.388;6.196;2022-10-26T12:14:51;53739.66;;;-145.32;100.00
14041;BME280;7095;51.388;6.196;2022-10-26T12:17:25;53761.53;;;-145.32;100.00
14041;BME280;7095;51.388;6.196;2022-10-26T12:20:03;53733.69;;;-145.32;100.00
14041;BME280;7095;51.388;6.196;2022-10-26T12:22:36;53745.63;;;-145.32;100.00
14041;BME280;7095;51.388;6.196;2022-10-26T12:25:19;53697.91;;;-145.32;100.00
14041;BME280;7095;51.388;6.196;2022-10-26T12:27:51;53719.78;;;-145.32;100.00
14041;BME280;7095;51.388;6.196;2022-10-26T12:30:29;53703.88;;;-145.32;100.00
14041;BME280;7095;51.388;6.196;2022-10-26T12:32:58;53709.84;;;-145.32;100.00
14041;BME280;7095;51.388;6.196;2022-10-26T12:35:40;53729.72;;;-145.32;100.00
14041;BME280;7095;51.388;6.196;2022-10-26T12:41:23;53695.94;;;-145.32;100.00
14041;BME280;7095;51.388;6.196;2022-10-26T12:43:56;53666.09;;;-145.32;100.00
14041;BME280;7095;51.388;6.196;2022-10-26T12:46:40;53666.09;;;-145.32;100.00
14041;BME280;7095;51.388;6.196;2022-10-26T12:52:31;53610.44;;;-145.32;100.00
14041;BME280;7095;51.388;6.196;2022-10-26T12:55:18;53584.59;;;-145.32;100.00
14041;BME280;7095;51.388;6.196;2022-10-26T12:58:00;53626.34;;;-145.32;100.00
14041;BME280;7095;51.388;6.196;2022-10-26T13:00:32;53602.47;;;-145.32;100.00
14041;BME280;7095;51.388;6.196;2022-10-26T13:03:19;53584.59;;;-145.32;100.00
14041;BME280;7095;51.388;6.196;2022-10-26T13:06:13;53556.75;;;-145.32;100.00
14041;BME280;7095;51.388;6.196;2022-10-26T13:08:47;53542.84;;;-145.32;100.00
14041;BME280;7095;51.388;6.196;2022-10-26T13:11:27;53550.78;;;-145.32;100.00
14041;BME280;7095;51.388;6.196;2022-10-26T13:14:01;53526.94;;;-145.32;100.00
14041;BME280;7095;51.388;6.196;2022-10-26T13:16:31;53495.13;;;-145.32;100.00
14041;BME280;7095;51.388;6.196;2022-10-26T13:19:00;53520.97;;;-145.32;100.00